Weather at Slieve Croob Airfield

Public forecast

Using degrees Celsius for public forecast. Weather courtesy of forecast.io.

Closest aviation weather report (METAR) to Slieve Croob Airfield

Closest report is George Best Belfast City Airport, 17.5 nm (32.4 km) N.

2024/05/23 05:20 (retrieved 36 minutes ago)

EGAC 230520Z AUTO 33013G27KT 270V020 9000 -RA //////TCU 09/07 Q1012

Closest aviation forecast (TAF) to Slieve Croob Airfield

Forecast is more than 12 hours old.

Closest forecast is RAF Fairford, 218.6 nm (404.8 km) SE.

2024/05/22 16:18 Ammendment (retrieved 14 hours ago)

AMD EGVA 221610Z 2216/2315 28010G18KT 9000 -SHRA FEW010 SCT015 OVC035 620703 QNH2970INS TEMPO 2216/2217 5000 TSRA BKN015 BECMG 2222/2223 26012G18KT 9999 NSW BKN015 QNH2977INS BECMG 2307/2308 27015G25KT 9999 BKN020 QNH2985INS TX16/2216Z TN11/2302Z LAST NO AMDS AFT 2217 NEXT 2302